Time;durP1;ratioP1;P1;durP2;ratioP2;P2;SDS_P1;SDS_P2;PMS_P1;PMS_P2;Temp;Humidity;BMP_temperature;BMP_pressure;BME280_temperature;BME280_humidity;BME280_pressure;Samples;Min_cycle;Max_cycle;Signal;HPM_P1;HPM_P2
2021/03/20 00:02:04;;;;;;;9.43;2.20;;;;;;;;;;5075908;28;20036;-60
2021/03/20 00:04:30;;;;;;;8.15;2.00;;;;;;;;;;5081508;28;20136;-62
2021/03/20 00:06:58;;;;;;;8.68;2.47;;;;;;;;;;5076072;28;20051;-59
2021/03/20 00:09:26;;;;;;;5.15;2.03;;;;;;;;;;5081212;28;20059;-61
2021/03/20 00:11:52;;;;;;;3.20;1.67;;;;;;;;;;5076679;28;20028;-60
2021/03/20 00:14:20;;;;;;;4.47;1.95;;;;;;;;;;5084168;28;20646;-61
2021/03/20 00:16:46;;;;;;;8.57;2.23;;;;;;;;;;5076737;28;20518;-61
2021/03/20 00:19:13;;;;;;;4.97;1.83;;;;;;;;;;5081417;28;20628;-60
2021/03/20 00:21:39;;;;;;;5.85;2.03;;;;;;;;;;5078723;28;20052;-61
2021/03/20 00:24:05;;;;;;;6.07;2.13;;;;;;;;;;5102082;28;20132;-61
2021/03/20 00:26:31;;;;;;;5.18;2.35;;;;;;;;;;5080201;28;20048;-62
2021/03/20 00:28:58;;;;;;;4.60;1.88;;;;;;;;;;5083952;28;20047;-62
2021/03/20 00:31:25;;;;;;;5.82;2.53;;;;;;;;;;5081729;28;20079;-61
2021/03/20 00:33:51;;;;;;;5.88;2.17;;;;;;;;;;5102365;27;20036;-61
2021/03/20 00:36:18;;;;;;;3.67;1.83;;;;;;;;;;5099900;27;20059;-62
2021/03/20 00:38:50;;;;;;;3.67;1.70;;;;;;;;;;5074921;28;20040;-60
2021/03/20 00:41:16;;;;;;;6.28;2.17;;;;;;;;;;5080331;28;20531;-60
2021/03/20 00:43:42;;;;;;;4.80;1.88;;;;;;;;;;5092370;28;20131;-61
2021/03/20 00:46:09;;;;;;;6.30;2.40;;;;;;;;;;5086853;28;20418;-60
2021/03/20 00:48:38;;;;;;;6.13;2.08;;;;;;;;;;5118846;27;20043;-61
2021/03/20 00:51:05;;;;;;;5.57;2.15;;;;;;;;;;5125154;27;20036;-60
2021/03/20 00:53:31;;;;;;;6.72;2.33;;;;;;;;;;5103781;27;20039;-60
2021/03/20 00:55:58;;;;;;;5.22;2.22;;;;;;;;;;5102496;28;20040;-60
2021/03/20 00:58:25;;;;;;;4.50;2.05;;;;;;;;;;5097558;28;20051;-61
2021/03/20 01:00:52;;;;;;;8.60;2.30;;;;;;;;;;5101454;28;20272;-61
2021/03/20 01:03:18;;;;;;;8.10;2.15;;;;;;;;;;5090685;28;20044;-60
2021/03/20 01:05:45;;;;;;;4.55;2.10;;;;;;;;;;5083800;28;20047;-60
2021/03/20 01:08:13;;;;;;;4.93;2.30;;;;;;;;;;5106484;28;20050;-61
2021/03/20 01:10:39;;;;;;;8.73;2.45;;;;;;;;;;5104963;28;20047;-60
2021/03/20 01:13:06;;;;;;;6.25;2.10;;;;;;;;;;5095833;28;20028;-61
2021/03/20 01:15:33;;;;;;;4.55;2.25;;;;;;;;;;5085619;28;20060;-58
2021/03/20 01:17:59;;;;;;;6.10;2.40;;;;;;;;;;5080716;28;20051;-59
2021/03/20 01:20:25;;;;;;;5.03;2.47;;;;;;;;;;5085490;28;20084;-61
2021/03/20 01:22:52;;;;;;;5.05;2.13;;;;;;;;;;5084160;28;20036;-62
2021/03/20 01:25:21;;;;;;;7.43;2.33;;;;;;;;;;5119067;28;20032;-60
2021/03/20 01:27:48;;;;;;;6.50;2.00;;;;;;;;;;5085736;28;20054;-60
2021/03/20 01:30:16;;;;;;;4.50;1.90;;;;;;;;;;5081869;28;20056;-60
2021/03/20 01:32:42;;;;;;;4.68;2.40;;;;;;;;;;5084230;28;20044;-58
2021/03/20 01:35:08;;;;;;;9.90;2.30;;;;;;;;;;5080400;28;20078;-60
2021/03/20 01:37:35;;;;;;;4.93;2.33;;;;;;;;;;5083113;28;20039;-58
2021/03/20 01:40:02;;;;;;;4.70;2.30;;;;;;;;;;5081544;28;20043;-60
2021/03/20 01:42:29;;;;;;;5.50;1.93;;;;;;;;;;5071964;28;20040;-61
2021/03/20 01:45:09;;;;;;;7.10;2.70;;;;;;;;;;5087404;28;20510;-61
2021/03/20 01:47:36;;;;;;;5.32;2.28;;;;;;;;;;5097028;28;20039;-60
2021/03/20 01:50:04;;;;;;;7.97;2.07;;;;;;;;;;5087337;28;20039;-57
2021/03/20 01:52:30;;;;;;;5.30;2.13;;;;;;;;;;5083627;28;20284;-58
2021/03/20 01:55:00;;;;;;;5.15;2.15;;;;;;;;;;5077248;28;20080;-58
2021/03/20 01:57:29;;;;;;;4.47;2.13;;;;;;;;;;5083511;28;20119;-58
2021/03/20 01:59:55;;;;;;;6.32;2.08;;;;;;;;;;5074631;28;20092;-59
2021/03/20 02:02:21;;;;;;;5.70;2.65;;;;;;;;;;5063614;28;20040;-58
2021/03/20 02:04:47;;;;;;;6.75;2.63;;;;;;;;;;5065809;28;20861;-58
2021/03/20 02:07:16;;;;;;;5.22;2.35;;;;;;;;;;5082829;28;20036;-56
2021/03/20 02:09:42;;;;;;;7.35;2.53;;;;;;;;;;5080351;28;20505;-57
2021/03/20 02:12:14;;;;;;;7.57;2.80;;;;;;;;;;5083329;28;20498;-59
2021/03/20 02:14:47;;;;;;;6.80;2.58;;;;;;;;;;5083161;28;20051;-57
2021/03/20 02:17:18;;;;;;;6.15;2.58;;;;;;;;;;5061799;28;20041;-59
2021/03/20 02:19:57;;;;;;;5.45;2.30;;;;;;;;;;5064458;28;20081;-58
2021/03/20 02:22:29;;;;;;;4.65;2.25;;;;;;;;;;5069625;28;20048;-59
2021/03/20 02:25:09;;;;;;;8.07;2.72;;;;;;;;;;5083953;28;20033;-57
2021/03/20 02:27:53;;;;;;;6.15;2.30;;;;;;;;;;5092936;28;20048;-57
2021/03/20 02:30:40;;;;;;;5.60;2.47;;;;;;;;;;5092318;27;20040;-57
2021/03/20 02:33:24;;;;;;;6.25;2.47;;;;;;;;;;5082522;28;20041;-57
2021/03/20 02:35:54;;;;;;;5.72;2.55;;;;;;;;;;5080612;28;20044;-58
2021/03/20 02:38:26;;;;;;;4.18;2.15;;;;;;;;;;5085158;28;20058;-56
2021/03/20 02:40:56;;;;;;;6.00;2.45;;;;;;;;;;5081513;28;20032;-57
2021/03/20 02:43:26;;;;;;;6.30;2.15;;;;;;;;;;5082852;28;20427;-56
2021/03/20 02:45:57;;;;;;;6.80;2.53;;;;;;;;;;5083796;28;20055;-57
2021/03/20 02:48:26;;;;;;;7.00;2.60;;;;;;;;;;5081443;28;20036;-59
2021/03/20 02:50:57;;;;;;;8.25;2.25;;;;;;;;;;5086066;28;20040;-55
2021/03/20 02:53:26;;;;;;;5.90;2.45;;;;;;;;;;5094092;28;20039;-56
2021/03/20 02:55:54;;;;;;;5.07;2.35;;;;;;;;;;5101925;28;20037;-57
2021/03/20 02:58:22;;;;;;;4.82;2.03;;;;;;;;;;5079641;28;20098;-57
2021/03/20 03:00:50;;;;;;;5.32;2.30;;;;;;;;;;5085801;28;20047;-56
2021/03/20 03:03:17;;;;;;;5.88;2.38;;;;;;;;;;5085903;28;20154;-55
2021/03/20 03:05:47;;;;;;;6.78;2.25;;;;;;;;;;5081251;28;20024;-55
2021/03/20 03:08:16;;;;;;;7.65;2.58;;;;;;;;;;5079913;28;20024;-57
2021/03/20 03:10:45;;;;;;;9.13;2.60;;;;;;;;;;5082998;28;20056;-58
2021/03/20 03:13:10;;;;;;;;;;;;;;;;;;5083329;27;20096;-58
2021/03/20 03:15:38;;;;;;;4.68;2.28;;;;;;;;;;5102451;27;20354;-58
2021/03/20 03:18:06;;;;;;;5.95;2.58;;;;;;;;;;5095452;28;20162;-58
2021/03/20 03:20:35;;;;;;;7.03;2.33;;;;;;;;;;5102951;27;20032;-56
2021/03/20 03:23:02;;;;;;;6.82;2.83;;;;;;;;;;5099445;27;20028;-58
2021/03/20 03:25:31;;;;;;;6.28;2.45;;;;;;;;;;5104813;28;20040;-57
2021/03/20 03:27:59;;;;;;;6.47;2.08;;;;;;;;;;5099786;28;20047;-57
2021/03/20 03:30:26;;;;;;;5.20;2.42;;;;;;;;;;5104235;28;20040;-58
2021/03/20 03:32:56;;;;;;;5.88;2.47;;;;;;;;;;5104915;28;20040;-56
2021/03/20 03:35:26;;;;;;;4.00;2.17;;;;;;;;;;5080916;28;20056;-58
2021/03/20 03:37:55;;;;;;;6.70;2.45;;;;;;;;;;5083316;28;20170;-58
2021/03/20 03:40:23;;;;;;;6.55;2.70;;;;;;;;;;5079918;28;20048;-57
2021/03/20 03:42:51;;;;;;;5.88;2.53;;;;;;;;;;5083316;28;20059;-53
2021/03/20 03:45:18;;;;;;;7.07;2.78;;;;;;;;;;5079874;28;20121;-59
2021/03/20 03:47:45;;;;;;;6.53;2.58;;;;;;;;;;5083275;28;20092;-57
2021/03/20 03:50:13;;;;;;;9.45;2.70;;;;;;;;;;5079942;28;20040;-58
2021/03/20 03:52:39;;;;;;;5.25;2.38;;;;;;;;;;5082227;28;20473;-56
2021/03/20 03:55:06;;;;;;;5.95;2.47;;;;;;;;;;5079398;28;20044;-58
2021/03/20 03:57:44;;;;;;;11.30;2.25;;;;;;;;;;5089854;28;20044;-53
2021/03/20 04:00:14;;;;;;;4.32;2.20;;;;;;;;;;5081859;28;20815;-58
2021/03/20 04:03:02;;;;;;;5.60;2.47;;;;;;;;;;5091627;28;20047;-56
2021/03/20 04:05:31;;;;;;;5.93;2.65;;;;;;;;;;5072154;28;20041;-58
2021/03/20 04:08:02;;;;;;;5.60;2.55;;;;;;;;;;5063688;28;20051;-56
2021/03/20 04:10:30;;;;;;;6.45;2.80;;;;;;;;;;5059513;28;20028;-57
2021/03/20 04:12:58;;;;;;;6.63;2.65;;;;;;;;;;5062617;28;20059;-57
2021/03/20 04:15:31;;;;;;;6.55;2.38;;;;;;;;;;5061852;28;20040;-58
2021/03/20 04:18:02;;;;;;;8.70;2.80;;;;;;;;;;5063221;28;20040;-56
2021/03/20 04:20:31;;;;;;;8.55;2.35;;;;;;;;;;5057630;28;20045;-59
2021/03/20 04:23:00;;;;;;;6.10;2.72;;;;;;;;;;5062954;28;20033;-57
2021/03/20 04:25:33;;;;;;;7.07;2.88;;;;;;;;;;5061281;28;20050;-57
2021/03/20 04:28:04;;;;;;;5.15;2.55;;;;;;;;;;5080621;28;20060;-58
2021/03/20 04:30:32;;;;;;;5.55;2.45;;;;;;;;;;5075328;28;20051;-61
2021/03/20 04:33:01;;;;;;;7.00;2.60;;;;;;;;;;5079329;28;20073;-59
2021/03/20 04:35:29;;;;;;;5.97;2.55;;;;;;;;;;5057404;28;20052;-58
2021/03/20 04:37:56;;;;;;;9.02;2.90;;;;;;;;;;5084846;28;20478;-59
2021/03/20 04:40:34;;;;;;;6.15;2.70;;;;;;;;;;5102691;28;20036;-59
2021/03/20 04:43:00;;;;;;;5.63;2.67;;;;;;;;;;5075466;28;20056;-59
2021/03/20 04:45:32;;;;;;;6.68;2.60;;;;;;;;;;5068546;28;20178;-60
2021/03/20 04:48:00;;;;;;;5.72;2.53;;;;;;;;;;5070006;28;20052;-60
2021/03/20 04:50:27;;;;;;;5.38;2.38;;;;;;;;;;5068077;28;20032;-60
2021/03/20 04:52:54;;;;;;;9.05;3.08;;;;;;;;;;5078262;28;20125;-60
2021/03/20 04:55:21;;;;;;;6.25;2.45;;;;;;;;;;5068779;28;20074;-58
2021/03/20 04:57:50;;;;;;;5.10;2.42;;;;;;;;;;5069293;28;20044;-60
2021/03/20 05:00:21;;;;;;;7.20;2.75;;;;;;;;;;5079726;28;20040;-59
2021/03/20 05:02:49;;;;;;;6.75;2.40;;;;;;;;;;5064740;28;20045;-60
2021/03/20 05:05:19;;;;;;;7.18;2.63;;;;;;;;;;5061241;28;20235;-60
2021/03/20 05:07:46;;;;;;;8.18;2.83;;;;;;;;;;5058142;28;20041;-60
2021/03/20 05:10:18;;;;;;;8.63;2.63;;;;;;;;;;5064088;28;20040;-60
2021/03/20 05:12:45;;;;;;;10.10;2.58;;;;;;;;;;5083475;28;20047;-59
2021/03/20 05:15:21;;;;;;;6.88;2.88;;;;;;;;;;5081316;28;20055;-61
2021/03/20 05:17:47;;;;;;;5.60;2.53;;;;;;;;;;5075498;28;20036;-59
2021/03/20 05:20:13;;;;;;;6.75;2.58;;;;;;;;;;5081541;28;20138;-59
2021/03/20 05:22:40;;;;;;;6.30;2.78;;;;;;;;;;5073946;28;20045;-60
2021/03/20 05:25:06;;;;;;;8.10;2.92;;;;;;;;;;5060732;28;20047;-62
2021/03/20 05:27:33;;;;;;;6.20;2.60;;;;;;;;;;5058837;28;20048;-61
2021/03/20 05:30:00;;;;;;;8.90;3.00;;;;;;;;;;5062536;28;20098;-60
2021/03/20 05:32:28;;;;;;;6.50;2.83;;;;;;;;;;5064456;28;20044;-60
2021/03/20 05:34:54;;;;;;;5.95;2.38;;;;;;;;;;5081810;28;20115;-60
2021/03/20 05:37:23;;;;;;;6.97;2.80;;;;;;;;;;5085807;28;20051;-60
2021/03/20 05:39:50;;;;;;;5.45;2.53;;;;;;;;;;5064722;28;20037;-59
2021/03/20 05:42:26;;;;;;;6.95;2.72;;;;;;;;;;5048466;28;20048;-60
2021/03/20 05:44:57;;;;;;;6.32;2.88;;;;;;;;;;5062402;28;20037;-60
2021/03/20 05:47:33;;;;;;;4.65;2.30;;;;;;;;;;5062874;28;20047;-60
2021/03/20 05:50:09;;;;;;;6.32;2.45;;;;;;;;;;5062468;28;20044;-61
2021/03/20 05:52:45;;;;;;;7.50;2.92;;;;;;;;;;5060955;28;20033;-59
2021/03/20 05:55:23;;;;;;;6.55;2.75;;;;;;;;;;5084277;28;20117;-59
2021/03/20 05:57:49;;;;;;;;;;;;;;;;;;5082820;28;20051;-60
2021/03/20 06:00:18;;;;;;;6.28;2.40;;;;;;;;;;5092344;28;19936;-60
2021/03/20 06:02:56;;;;;;;5.78;2.67;;;;;;;;;;5083150;28;20044;-59
2021/03/20 06:05:30;;;;;;;9.15;2.90;;;;;;;;;;5076890;28;20067;-60
2021/03/20 06:08:02;;;;;;;9.18;3.20;;;;;;;;;;5071640;28;20052;-59
2021/03/20 06:10:33;;;;;;;7.32;2.90;;;;;;;;;;5071186;28;20061;-59
2021/03/20 06:13:19;;;;;;;7.57;3.15;;;;;;;;;;5062706;28;20032;-59
2021/03/20 06:15:54;;;;;;;7.07;2.85;;;;;;;;;;5075003;27;20047;-60
2021/03/20 06:18:35;;;;;;;5.50;2.65;;;;;;;;;;5061658;28;20060;-61
2021/03/20 06:21:05;;;;;;;7.43;3.03;;;;;;;;;;5062224;28;20059;-59
2021/03/20 06:23:49;;;;;;;7.68;3.28;;;;;;;;;;5063011;28;20056;-60
2021/03/20 06:26:19;;;;;;;8.02;3.08;;;;;;;;;;5059121;28;20044;-59
2021/03/20 06:28:47;;;;;;;6.40;3.13;;;;;;;;;;5060185;28;20523;-60
2021/03/20 06:31:18;;;;;;;7.57;3.30;;;;;;;;;;5071873;28;20386;-60
2021/03/20 06:33:46;;;;;;;8.75;3.05;;;;;;;;;;5082061;28;20055;-61
2021/03/20 06:36:16;;;;;;;7.85;3.15;;;;;;;;;;5081040;28;20040;-60
2021/03/20 06:38:43;;;;;;;8.45;3.28;;;;;;;;;;5085819;28;20028;-62
2021/03/20 06:41:14;;;;;;;7.13;3.35;;;;;;;;;;5077470;28;20044;-61
2021/03/20 06:43:44;;;;;;;9.85;3.33;;;;;;;;;;5073011;28;20063;-61
2021/03/20 06:46:14;;;;;;;6.57;3.05;;;;;;;;;;5061024;28;20045;-62
2021/03/20 06:48:40;;;;;;;6.68;3.35;;;;;;;;;;5062685;28;20095;-62
2021/03/20 06:51:06;;;;;;;7.25;3.15;;;;;;;;;;5064061;28;20036;-63
2021/03/20 06:53:38;;;;;;;8.27;3.58;;;;;;;;;;5084302;28;20040;-60
2021/03/20 06:56:06;;;;;;;6.20;2.92;;;;;;;;;;5080073;28;20073;-63
2021/03/20 06:58:33;;;;;;;9.23;3.10;;;;;;;;;;5083133;28;20047;-61
2021/03/20 07:01:01;;;;;;;6.97;2.95;;;;;;;;;;5083395;28;20273;-61
2021/03/20 07:03:39;;;;;;;7.82;3.40;;;;;;;;;;5062410;28;20063;-61
2021/03/20 07:06:12;;;;;;;13.38;3.20;;;;;;;;;;5064546;28;20065;-62
2021/03/20 07:08:43;;;;;;;8.23;3.78;;;;;;;;;;5063314;28;20522;-60
2021/03/20 07:11:17;;;;;;;7.57;3.00;;;;;;;;;;5073262;28;20036;-60
2021/03/20 07:13:44;;;;;;;8.88;3.42;;;;;;;;;;5089057;28;20033;-61
2021/03/20 07:16:13;;;;;;;19.25;7.55;;;;;;;;;;5082763;28;20054;-61
2021/03/20 07:18:39;;;;;;;;;;;;;;;;;;5078743;28;20105;-61
2021/03/20 07:21:19;;;;;;;9.63;3.75;;;;;;;;;;5080005;28;19916;-61
2021/03/20 07:23:51;;;;;;;7.88;3.35;;;;;;;;;;5079061;28;20044;-63
2021/03/20 07:26:18;;;;;;;9.43;3.05;;;;;;;;;;5082217;28;20042;-60
2021/03/20 07:28:48;;;;;;;7.55;3.22;;;;;;;;;;5082582;28;20060;-62
2021/03/20 07:31:15;;;;;;;6.50;2.95;;;;;;;;;;5088143;28;20522;-63
2021/03/20 07:33:43;;;;;;;9.32;3.35;;;;;;;;;;5088090;27;20091;-63
2021/03/20 07:36:25;;;;;;;6.45;3.05;;;;;;;;;;5087470;28;20036;-62
2021/03/20 07:39:06;;;;;;;7.90;2.88;;;;;;;;;;5061314;27;20427;-63
2021/03/20 07:41:42;;;;;;;8.77;3.40;;;;;;;;;;5092468;27;20054;-64
2021/03/20 07:44:09;;;;;;;10.02;3.17;;;;;;;;;;5082990;27;20492;-62
2021/03/20 07:46:37;;;;;;;6.43;2.80;;;;;;;;;;5085855;28;20108;-63
2021/03/20 07:49:05;;;;;;;7.70;3.33;;;;;;;;;;5074399;28;20040;-62
2021/03/20 07:51:44;;;;;;;8.77;3.58;;;;;;;;;;5069092;28;20073;-62
2021/03/20 07:54:19;;;;;;;8.55;3.58;;;;;;;;;;5071257;28;20059;-61
2021/03/20 07:56:45;;;;;;;7.15;3.22;;;;;;;;;;5072955;28;20103;-63
2021/03/20 07:59:15;;;;;;;8.98;3.45;;;;;;;;;;5078379;28;20039;-61
2021/03/20 08:01:42;;;;;;;9.15;3.00;;;;;;;;;;5076140;28;20063;-62
2021/03/20 08:04:09;;;;;;;8.68;4.15;;;;;;;;;;5071787;28;20189;-61
2021/03/20 08:06:45;;;;;;;23.20;7.20;;;;;;;;;;5074983;28;20051;-63
2021/03/20 08:09:12;;;;;;;14.52;5.55;;;;;;;;;;5072437;28;20106;-63
2021/03/20 08:11:39;;;;;;;9.32;4.03;;;;;;;;;;5075406;28;20070;-61
2021/03/20 08:14:08;;;;;;;7.65;2.72;;;;;;;;;;5073958;28;20048;-62
2021/03/20 08:16:35;;;;;;;4.97;2.25;;;;;;;;;;5060769;28;20049;-62
2021/03/20 08:19:02;;;;;;;6.05;2.33;;;;;;;;;;5074280;28;20146;-61
2021/03/20 08:21:32;;;;;;;7.05;2.60;;;;;;;;;;5067203;28;20154;-62
2021/03/20 08:24:22;;;;;;;7.82;2.70;;;;;;;;;;5062285;28;20044;-61
2021/03/20 08:26:52;;;;;;;6.70;2.47;;;;;;;;;;5046752;28;20040;-61
2021/03/20 08:29:25;;;;;;;6.80;2.90;;;;;;;;;;5066980;28;20032;-61
2021/03/20 08:31:56;;;;;;;6.72;2.92;;;;;;;;;;5099102;28;20043;-60
2021/03/20 08:34:38;;;;;;;9.13;2.78;;;;;;;;;;5098329;28;20040;-62
2021/03/20 08:37:23;;;;;;;10.65;3.20;;;;;;;;;;5079994;28;20178;-62
2021/03/20 08:39:54;;;;;;;5.95;2.40;;;;;;;;;;5081494;28;20494;-62
2021/03/20 08:42:25;;;;;;;10.25;2.78;;;;;;;;;;5101867;28;20446;-60
2021/03/20 08:45:00;;;;;;;5.05;2.45;;;;;;;;;;5081966;28;20055;-62
2021/03/20 08:47:39;;;;;;;6.68;3.00;;;;;;;;;;5080089;28;20115;-62
2021/03/20 08:50:16;;;;;;;6.07;2.72;;;;;;;;;;5081018;28;20044;-61
2021/03/20 08:52:46;;;;;;;7.07;2.70;;;;;;;;;;5079414;28;20048;-61
2021/03/20 08:55:17;;;;;;;6.90;2.40;;;;;;;;;;5078639;28;20513;-61
2021/03/20 08:57:47;;;;;;;6.03;2.50;;;;;;;;;;5076453;28;20058;-59
2021/03/20 09:00:17;;;;;;;7.00;2.80;;;;;;;;;;5080490;28;20142;-59
2021/03/20 09:02:44;;;;;;;5.10;2.00;;;;;;;;;;5093043;28;20058;-62
2021/03/20 09:05:27;;;;;;;4.88;2.30;;;;;;;;;;5100654;28;20101;-61
2021/03/20 09:07:56;;;;;;;7.20;3.15;;;;;;;;;;5079226;28;20080;-59
2021/03/20 09:10:24;;;;;;;8.88;3.17;;;;;;;;;;5055597;28;20278;-59
2021/03/20 09:12:54;;;;;;;6.78;2.25;;;;;;;;;;5058171;28;20048;-58
2021/03/20 09:15:23;;;;;;;4.40;2.15;;;;;;;;;;5081530;28;20053;-61
2021/03/20 09:17:49;;;;;;;;;;;;;;;;;;5069098;28;20056;-62
2021/03/20 09:20:22;;;;;;;4.57;2.25;;;;;;;;;;5079326;28;19931;-60
2021/03/20 09:22:50;;;;;;;5.47;2.10;;;;;;;;;;5066638;28;20134;-62
2021/03/20 09:25:20;;;;;;;4.33;1.80;;;;;;;;;;5071052;28;20044;-59
2021/03/20 09:28:03;;;;;;;5.50;2.28;;;;;;;;;;5074816;28;20063;-60
2021/03/20 09:30:30;;;;;;;5.68;2.00;;;;;;;;;;5080963;28;20113;-60
2021/03/20 09:32:57;;;;;;;3.67;1.80;;;;;;;;;;5076718;28;20112;-61
2021/03/20 09:35:25;;;;;;;4.15;1.85;;;;;;;;;;5081620;28;20052;-60
2021/03/20 09:37:53;;;;;;;6.00;1.63;;;;;;;;;;5077267;28;20048;-60
2021/03/20 09:40:37;;;;;;;4.50;2.00;;;;;;;;;;5080936;28;20040;-61
2021/03/20 09:43:17;;;;;;;4.50;1.70;;;;;;;;;;5078004;28;20051;-62
2021/03/20 09:45:43;;;;;;;3.40;1.70;;;;;;;;;;5081595;28;20052;-60
2021/03/20 09:48:09;;;;;;;6.85;1.52;;;;;;;;;;5077633;28;20044;-58
2021/03/20 09:50:36;;;;;;;3.38;1.40;;;;;;;;;;5081120;28;20084;-61
2021/03/20 09:53:21;;;;;;;4.40;1.75;;;;;;;;;;5083188;28;20044;-60
2021/03/20 09:55:55;;;;;;;3.75;1.70;;;;;;;;;;5102697;28;20159;-60
2021/03/20 09:58:40;;;;;;;4.50;1.85;;;;;;;;;;5079637;28;20040;-62
2021/03/20 10:01:13;;;;;;;5.82;1.50;;;;;;;;;;5080111;28;20105;-62
2021/03/20 10:03:54;;;;;;;4.50;1.70;;;;;;;;;;5074608;28;20045;-62
2021/03/20 10:06:22;;;;;;;6.90;1.70;;;;;;;;;;5028619;28;20040;-61
2021/03/20 10:08:58;;;;;;;3.55;1.70;;;;;;;;;;5075707;28;20052;-60
2021/03/20 10:11:33;;;;;;;3.50;1.70;;;;;;;;;;5063060;28;20443;-62
2021/03/20 10:14:00;;;;;;;3.88;1.77;;;;;;;;;;5055765;28;20110;-63
2021/03/20 10:16:29;;;;;;;5.55;1.52;;;;;;;;;;5068058;28;20394;-62
2021/03/20 10:18:57;;;;;;;3.40;1.58;;;;;;;;;;5079881;28;20048;-63
2021/03/20 10:21:24;;;;;;;5.38;1.63;;;;;;;;;;5074852;28;20046;-62
2021/03/20 10:23:58;;;;;;;5.25;2.13;;;;;;;;;;5083707;28;20047;-62
2021/03/20 10:26:28;;;;;;;4.47;1.83;;;;;;;;;;5062801;28;20028;-61
2021/03/20 10:28:56;;;;;;;4.47;1.77;;;;;;;;;;5070210;28;20056;-61
2021/03/20 10:31:23;;;;;;;7.28;1.75;;;;;;;;;;5079620;28;20387;-62
2021/03/20 10:33:50;;;;;;;4.13;1.88;;;;;;;;;;5082849;28;20029;-61
2021/03/20 10:36:21;;;;;;;4.32;1.60;;;;;;;;;;5079732;28;20036;-62
2021/03/20 10:38:48;;;;;;;3.10;1.38;;;;;;;;;;5058712;28;20032;-61
2021/03/20 10:41:20;;;;;;;3.88;1.70;;;;;;;;;;5069967;28;20037;-61
2021/03/20 10:43:48;;;;;;;4.35;1.50;;;;;;;;;;5073626;28;20109;-62
2021/03/20 10:46:20;;;;;;;3.92;1.50;;;;;;;;;;5079845;28;20036;-62
2021/03/20 10:48:46;;;;;;;4.95;1.92;;;;;;;;;;5081649;28;20377;-62
2021/03/20 10:51:14;;;;;;;2.72;1.60;;;;;;;;;;5081858;28;20032;-62
2021/03/20 10:53:41;;;;;;;6.10;1.70;;;;;;;;;;5083111;28;20037;-62
2021/03/20 10:56:23;;;;;;;6.13;1.67;;;;;;;;;;5086870;28;20040;-63
2021/03/20 10:58:51;;;;;;;4.70;1.55;;;;;;;;;;5102463;28;20040;-60
2021/03/20 11:01:29;;;;;;;5.88;1.83;;;;;;;;;;5091843;28;20051;-62
2021/03/20 11:03:55;;;;;;;8.48;2.13;;;;;;;;;;5076102;28;20044;-61
2021/03/20 11:06:22;;;;;;;5.53;1.95;;;;;;;;;;5084521;28;20101;-61
2021/03/20 11:08:49;;;;;;;6.05;2.60;;;;;;;;;;5084430;28;20046;-60
2021/03/20 11:11:18;;;;;;;11.07;2.60;;;;;;;;;;5078357;28;20047;-63
2021/03/20 11:13:45;;;;;;;7.47;2.20;;;;;;;;;;5085334;28;20052;-61
2021/03/20 11:16:13;;;;;;;8.00;2.50;;;;;;;;;;5082958;28;20055;-62
2021/03/20 11:18:43;;;;;;;9.75;2.38;;;;;;;;;;5121978;27;20096;-61
2021/03/20 11:21:16;;;;;;;6.50;2.22;;;;;;;;;;5102499;28;20056;-60
2021/03/20 11:23:44;;;;;;;3.33;1.77;;;;;;;;;;5082275;28;20036;-61
2021/03/20 11:26:12;;;;;;;7.82;2.45;;;;;;;;;;5082437;28;20109;-62
2021/03/20 11:28:39;;;;;;;6.37;2.27;;;;;;;;;;5098215;28;20044;-60
2021/03/20 11:31:06;;;;;;;4.97;2.30;;;;;;;;;;5101924;27;20272;-61
2021/03/20 11:33:33;;;;;;;4.40;1.92;;;;;;;;;;5097825;28;20044;-61
2021/03/20 11:36:02;;;;;;;5.22;2.33;;;;;;;;;;5100669;28;20039;-61
2021/03/20 11:38:28;;;;;;;;;;;;;;;;;;5083317;28;20040;-61
2021/03/20 11:41:09;;;;;;;6.25;2.38;;;;;;;;;;5080319;28;19920;-61
2021/03/20 11:43:38;;;;;;;7.97;2.30;;;;;;;;;;5078078;28;20089;-61
2021/03/20 11:46:08;;;;;;;8.70;2.15;;;;;;;;;;5081234;28;20056;-62
2021/03/20 11:48:35;;;;;;;6.80;2.10;;;;;;;;;;5086404;28;20055;-60
2021/03/20 11:51:03;;;;;;;3.95;2.08;;;;;;;;;;5081814;28;20028;-63
2021/03/20 11:53:32;;;;;;;11.23;2.90;;;;;;;;;;5087680;28;20117;-61
2021/03/20 11:55:59;;;;;;;13.25;5.28;;;;;;;;;;5079855;28;20047;-60
2021/03/20 11:58:28;;;;;;;9.15;3.97;;;;;;;;;;5051916;28;20138;-62
2021/03/20 12:00:54;;;;;;;6.55;2.45;;;;;;;;;;5047641;28;20041;-60
2021/03/20 12:03:37;;;;;;;5.75;2.38;;;;;;;;;;5040408;28;20091;-61
2021/03/20 12:06:19;;;;;;;6.55;2.80;;;;;;;;;;5042541;28;20119;-61
2021/03/20 12:08:47;;;;;;;4.30;1.77;;;;;;;;;;5038772;28;20072;-60
2021/03/20 12:11:13;;;;;;;8.68;2.28;;;;;;;;;;5041689;28;20048;-61
2021/03/20 12:13:42;;;;;;;5.47;2.15;;;;;;;;;;5039277;28;20053;-60
2021/03/20 12:16:22;;;;;;;5.90;1.95;;;;;;;;;;5042733;28;20045;-61
2021/03/20 12:18:48;;;;;;;9.15;1.77;;;;;;;;;;5041941;28;20067;-61
2021/03/20 12:21:14;;;;;;;5.90;1.67;;;;;;;;;;5063092;28;20119;-59
2021/03/20 12:23:53;;;;;;;4.88;2.08;;;;;;;;;;5057429;28;20077;-59
2021/03/20 12:26:22;;;;;;;4.35;1.63;;;;;;;;;;5044367;28;20044;-59
2021/03/20 12:28:48;;;;;;;;;;;;;;;;;;5040978;28;20130;-59
2021/03/20 12:31:26;;;;;;;3.92;1.73;;;;;;;;;;5041188;28;19940;-59
2021/03/20 12:33:53;;;;;;;5.07;1.90;;;;;;;;;;5060681;28;20044;-60
2021/03/20 12:36:28;;;;;;;3.55;1.70;;;;;;;;;;5050418;28;20045;-58
2021/03/20 12:38:55;;;;;;;3.70;1.70;;;;;;;;;;5073605;28;20032;-59
2021/03/20 12:41:22;;;;;;;2.72;1.48;;;;;;;;;;5073880;28;20110;-60
2021/03/20 12:44:02;;;;;;;3.55;1.67;;;;;;;;;;5072559;28;20052;-59
2021/03/20 12:46:30;;;;;;;5.93;2.10;;;;;;;;;;5058671;28;20483;-59
2021/03/20 12:48:56;;;;;;;4.35;2.08;;;;;;;;;;5046363;28;20081;-59
2021/03/20 12:51:23;;;;;;;5.70;2.05;;;;;;;;;;5061876;28;20051;-60
2021/03/20 12:53:52;;;;;;;4.40;2.15;;;;;;;;;;5063640;28;20044;-59
2021/03/20 12:56:19;;;;;;;5.03;2.13;;;;;;;;;;5076233;28;20051;-60
2021/03/20 12:58:46;;;;;;;5.60;2.25;;;;;;;;;;5083578;28;20048;-59
2021/03/20 13:01:13;;;;;;;4.20;2.03;;;;;;;;;;5088420;28;20407;-59
2021/03/20 13:03:39;;;;;;;6.38;2.30;;;;;;;;;;5101345;28;20493;-59
2021/03/20 13:06:07;;;;;;;6.93;2.53;;;;;;;;;;5097990;28;20310;-62
2021/03/20 13:08:36;;;;;;;6.35;2.58;;;;;;;;;;5093679;28;20051;-59
2021/03/20 13:11:01;;;;;;;;;;;;;;;;;;5093506;28;20032;-59
2021/03/20 13:13:28;;;;;;;4.63;2.10;;;;;;;;;;5081078;28;20331;-61
2021/03/20 13:15:55;;;;;;;7.13;2.83;;;;;;;;;;5071884;28;20081;-60
2021/03/20 13:18:25;;;;;;;6.57;2.40;;;;;;;;;;5082634;28;20032;-59
2021/03/20 13:20:51;;;;;;;5.03;2.28;;;;;;;;;;5079503;28;20497;-60
2021/03/20 13:23:18;;;;;;;5.43;2.25;;;;;;;;;;5080822;28;20043;-62
2021/03/20 13:25:44;;;;;;;7.07;2.78;;;;;;;;;;5081479;28;20063;-60
2021/03/20 13:28:11;;;;;;;13.80;4.78;;;;;;;;;;5068017;28;20040;-60
2021/03/20 13:30:39;;;;;;;9.65;3.10;;;;;;;;;;5081846;28;20059;-61
2021/03/20 13:33:05;;;;;;;4.38;1.90;;;;;;;;;;5089829;28;20144;-60
2021/03/20 13:35:33;;;;;;;6.43;2.15;;;;;;;;;;5098215;28;20050;-60
2021/03/20 13:37:59;;;;;;;8.82;2.30;;;;;;;;;;5065385;28;20061;-60
2021/03/20 13:40:26;;;;;;;5.05;2.45;;;;;;;;;;5059774;28;20177;-59
2021/03/20 13:42:52;;;;;;;4.93;2.10;;;;;;;;;;5066993;28;20126;-60
2021/03/20 13:45:19;;;;;;;4.03;1.80;;;;;;;;;;5071189;28;20120;-60
2021/03/20 13:47:46;;;;;;;5.18;2.22;;;;;;;;;;5057818;28;20044;-61
2021/03/20 13:50:13;;;;;;;5.90;2.35;;;;;;;;;;5078349;28;20033;-59
2021/03/20 13:52:39;;;;;;;5.65;2.58;;;;;;;;;;5082057;28;20386;-59
2021/03/20 13:55:05;;;;;;;5.03;2.28;;;;;;;;;;5085505;28;20051;-59
2021/03/20 13:57:31;;;;;;;4.78;2.35;;;;;;;;;;5081396;28;20991;-60
2021/03/20 13:59:57;;;;;;;5.97;2.55;;;;;;;;;;5068265;28;20069;-60
2021/03/20 14:02:23;;;;;;;6.18;2.50;;;;;;;;;;5063842;28;20048;-60
2021/03/20 14:04:50;;;;;;;6.30;2.78;;;;;;;;;;5080626;28;20486;-59
2021/03/20 14:07:27;;;;;;;6.30;2.78;;;;;;;;;;5084408;28;20040;-61
2021/03/20 14:09:53;;;;;;;10.18;2.65;;;;;;;;;;5061969;28;20056;-60
2021/03/20 14:12:19;;;;;;;6.75;2.92;;;;;;;;;;5063243;28;20069;-61
2021/03/20 14:14:46;;;;;;;7.47;3.20;;;;;;;;;;5077400;28;20048;-60
2021/03/20 14:17:12;;;;;;;7.95;3.38;;;;;;;;;;5082218;28;20094;-59
2021/03/20 14:19:38;;;;;;;7.78;3.30;;;;;;;;;;5077109;28;20044;-59
2021/03/20 14:22:05;;;;;;;8.20;3.45;;;;;;;;;;5084874;28;20051;-60
2021/03/20 14:24:31;;;;;;;10.30;3.45;;;;;;;;;;5081854;28;20531;-59
2021/03/20 14:26:58;;;;;;;7.00;3.00;;;;;;;;;;5086211;28;20036;-59
2021/03/20 14:29:24;;;;;;;6.53;3.05;;;;;;;;;;5078796;28;20055;-59
2021/03/20 14:31:50;;;;;;;7.63;3.40;;;;;;;;;;5080220;28;20040;-60
2021/03/20 14:34:16;;;;;;;9.75;3.45;;;;;;;;;;5065393;28;20064;-59
2021/03/20 14:36:44;;;;;;;7.60;3.40;;;;;;;;;;5067725;28;20561;-59
2021/03/20 14:39:11;;;;;;;8.88;3.20;;;;;;;;;;5070686;28;20059;-62
2021/03/20 14:41:37;;;;;;;9.13;3.30;;;;;;;;;;5069786;28;20036;-59
2021/03/20 14:44:04;;;;;;;8.98;3.58;;;;;;;;;;5074270;28;20032;-59
2021/03/20 14:46:30;;;;;;;12.82;4.25;;;;;;;;;;5083087;28;20048;-60
2021/03/20 14:48:56;;;;;;;7.80;3.78;;;;;;;;;;5082357;28;20482;-59
2021/03/20 14:51:22;;;;;;;7.93;3.70;;;;;;;;;;5063957;28;20048;-59
2021/03/20 14:53:48;;;;;;;10.60;3.60;;;;;;;;;;5064530;28;20048;-61
2021/03/20 14:56:15;;;;;;;11.98;4.97;;;;;;;;;;5042123;28;20049;-60
2021/03/20 14:58:41;;;;;;;12.02;5.93;;;;;;;;;;5042396;28;20037;-60
2021/03/20 15:01:07;;;;;;;9.95;4.50;;;;;;;;;;5067205;28;20048;-59